Time;durP1;ratioP1;P1;durP2;ratioP2;P2;SDS_P1;SDS_P2;PMS_P1;PMS_P2;Temp;Humidity;BMP_temperature;BMP_pressure;BME280_temperature;BME280_humidity;BME280_pressure;Samples;Min_cycle;Max_cycle;Signal;HPM_P1;HPM_P2
2022/06/12 00:02:26;;;;;;;9.50;2.70;;;;;;;14.50;68.22;102179.38;5036204;28;20570;-79
2022/06/12 00:04:53;;;;;;;6.82;2.30;;;;;;;14.47;68.45;102180.34;5038465;28;20045;-78
2022/06/12 00:07:20;;;;;;;7.07;2.10;;;;;;;14.42;68.59;102174.28;5035624;28;20068;-80
2022/06/12 00:09:47;;;;;;;11.38;2.75;;;;;;;14.39;68.44;102179.69;5041707;28;20591;-78
2022/06/12 00:12:14;;;;;;;6.25;2.13;;;;;;;14.36;68.83;102177.09;5041544;28;20038;-80
2022/06/12 00:14:41;;;;;;;10.02;2.20;;;;;;;14.32;69.01;102175.41;5040889;28;20057;-79
2022/06/12 00:17:09;;;;;;;8.35;2.60;;;;;;;14.27;68.68;102171.09;5040785;28;20060;-78
2022/06/12 00:19:40;;;;;;;7.82;2.42;;;;;;;14.23;68.90;102169.44;5041621;28;20034;-79
2022/06/12 00:22:08;;;;;;;7.95;1.90;;;;;;;14.19;69.08;102172.19;5043106;28;20053;-79
2022/06/12 00:24:37;;;;;;;9.73;2.42;;;;;;;14.15;69.08;102168.75;5040811;28;21980;-79
2022/06/12 00:27:04;;;;;;;7.85;2.45;;;;;;;14.10;69.13;102171.50;5041930;28;20050;-78
2022/06/12 00:29:35;;;;;;;6.90;1.88;;;;;;;14.05;68.85;102172.53;5037352;28;20516;-76
2022/06/12 00:32:13;;;;;;;7.18;2.38;;;;;;;14.03;68.99;102169.94;5036161;28;20603;-78
2022/06/12 00:34:52;;;;;;;7.53;2.53;;;;;;;13.97;69.07;102172.69;5034520;28;20038;-78
2022/06/12 00:37:25;;;;;;;8.75;2.63;;;;;;;13.94;68.87;102172.75;5041507;28;20041;-78
2022/06/12 00:39:56;;;;;;;6.28;2.08;;;;;;;13.88;69.01;102175.56;5037767;28;20526;-79
2022/06/12 00:42:36;;;;;;;7.78;2.30;;;;;;;13.82;68.69;102166.88;5033866;28;20034;-79
2022/06/12 00:45:40;;;;;;;7.38;2.25;;;;;;;13.76;69.37;102172.28;5034717;28;20045;-78
2022/06/12 00:48:36;;;;;;;5.78;2.53;;;;;;;13.72;69.47;102170.63;5034298;28;20048;-79
2022/06/12 00:51:06;;;;;;;9.65;2.60;;;;;;;13.65;69.37;102175.19;5034515;28;20550;-78
2022/06/12 00:53:43;;;;;;;7.85;2.65;;;;;;;13.59;69.12;102170.00;5042724;28;20044;-78
2022/06/12 00:56:26;;;;;;;7.50;2.55;;;;;;;13.56;69.17;102167.44;5035769;28;20047;-78
2022/06/12 00:59:02;;;;;;;5.85;2.40;;;;;;;13.49;69.52;102168.47;5031937;28;20941;-78
2022/06/12 01:01:35;;;;;;;5.05;2.08;;;;;;;13.44;69.14;102170.34;5033291;28;20045;-78
2022/06/12 01:06:54;;;;;;;7.53;2.05;;;;;;;13.31;69.21;102173.22;5035436;28;20042;-77
2022/06/12 01:09:32;;;;;;;8.57;2.53;;;;;;;13.29;69.55;102171.50;5046153;28;20049;-79
2022/06/12 01:12:04;;;;;;;6.43;2.30;;;;;;;13.26;69.66;102175.09;5039609;28;20061;-77
2022/06/12 01:14:42;;;;;;;10.43;2.45;;;;;;;13.22;69.45;102170.75;5034223;28;20141;-77
2022/06/12 01:17:11;;;;;;;8.68;2.10;;;;;;;13.17;69.62;102175.28;5033284;28;20112;-78
2022/06/12 01:19:50;;;;;;;11.13;2.58;;;;;;;13.14;70.02;102175.34;5055209;28;20095;-78
2022/06/12 01:23:08;;;;;;;7.95;2.35;;;;;;;13.09;69.96;102174.53;5062376;28;20034;-77
2022/06/12 01:26:03;;;;;;;6.70;1.92;;;;;;;13.00;70.07;102171.16;5064178;28;20045;-78
2022/06/12 01:28:55;;;;;;;6.35;2.15;;;;;;;12.96;70.58;102168.63;5041548;28;20046;-78
2022/06/12 01:32:08;;;;;;;11.25;2.70;;;;;;;12.91;70.18;102176.66;5039465;28;20025;-79
2022/06/12 01:34:48;;;;;;;6.53;2.10;;;;;;;12.84;70.56;102177.66;5034355;28;20152;-77
2022/06/12 01:37:36;;;;;;;9.45;2.22;;;;;;;12.80;70.85;102175.97;5035226;28;20048;-78
2022/06/12 01:40:24;;;;;;;7.93;2.28;;;;;;;12.76;70.97;102180.44;5039824;28;20081;-78
2022/06/12 01:43:19;;;;;;;9.73;2.40;;;;;;;12.71;70.93;102172.59;5033498;28;20088;-77
2022/06/12 01:46:01;;;;;;;6.03;2.35;;;;;;;12.68;71.08;102172.63;5034237;28;20052;-79
2022/06/12 01:49:04;;;;;;;5.93;2.65;;;;;;;12.64;71.07;102170.09;5036009;28;20125;-78
2022/06/12 01:51:45;;;;;;;9.05;2.50;;;;;;;12.60;71.42;102177.19;5031127;28;20046;-77
2022/06/12 01:54:31;;;;;;;7.93;2.38;;;;;;;12.57;71.25;102174.59;5035193;28;20546;-78
2022/06/12 01:57:13;;;;;;;8.85;2.63;;;;;;;12.53;71.60;102159.69;5041205;28;20480;-77
2022/06/12 02:00:02;;;;;;;7.50;2.60;;;;;;;12.50;72.30;102162.38;5031490;28;20810;-78
2022/06/12 02:02:52;;;;;;;10.63;3.20;;;;;;;12.46;72.33;102158.06;5035410;28;20127;-77
2022/06/12 02:05:28;;;;;;;9.27;3.20;;;;;;;12.38;72.40;102160.84;5042647;28;20051;-79
2022/06/12 02:08:13;;;;;;;11.73;3.05;;;;;;;12.36;72.24;102160.84;5035930;28;20072;-77
2022/06/12 02:10:48;;;;;;;;;;;;;;;12.31;71.85;102156.56;5037641;28;20575;-76
2022/06/12 02:13:35;;;;;;;6.70;2.63;;;;;;;12.29;71.99;102156.56;5044589;28;19924;-76
2022/06/12 02:16:08;;;;;;;11.30;3.00;;;;;;;12.28;72.18;102149.53;5032416;28;20414;-77
2022/06/12 02:18:50;;;;;;;10.40;2.60;;;;;;;12.29;72.73;102153.91;5036812;28;20061;-78
2022/06/12 02:21:55;;;;;;;8.60;2.80;;;;;;;12.27;72.73;102159.25;5035796;28;20097;-78
2022/06/12 02:24:39;;;;;;;9.90;2.80;;;;;;;12.25;72.88;102153.09;5035694;28;20165;-78
2022/06/12 02:27:34;;;;;;;9.68;3.20;;;;;;;12.28;73.13;102152.16;5034098;28;20427;-78
2022/06/12 02:30:17;;;;;;;7.00;2.85;;;;;;;12.25;73.06;102152.25;5037443;28;20113;-81
2022/06/12 02:33:12;;;;;;;6.75;3.00;;;;;;;12.23;73.06;102154.88;5036269;28;20042;-80
2022/06/12 02:36:01;;;;;;;6.57;2.95;;;;;;;12.23;72.86;102152.25;5039092;28;20037;-78
2022/06/12 02:39:07;;;;;;;8.20;3.25;;;;;;;12.26;73.30;102162.78;5033261;28;20049;-79
2022/06/12 02:41:47;;;;;;;11.70;3.63;;;;;;;12.31;73.48;102156.56;5031392;28;20049;-78
2022/06/12 02:44:33;;;;;;;7.90;3.28;;;;;;;12.29;73.44;102153.06;5032263;28;20816;-79
2022/06/12 02:47:11;;;;;;;8.82;3.60;;;;;;;12.26;73.21;102151.31;5030845;28;20038;-78
2022/06/12 02:49:44;;;;;;;9.52;3.80;;;;;;;12.24;73.18;102147.84;5037927;28;20111;-79
2022/06/12 02:52:26;;;;;;;10.87;3.73;;;;;;;12.22;73.35;102154.94;5036704;28;20041;-78
2022/06/12 02:55:05;;;;;;;9.93;3.70;;;;;;;12.19;73.94;102155.84;5039729;28;20046;-77
2022/06/12 02:57:46;;;;;;;8.50;3.17;;;;;;;12.14;74.69;102146.25;5032580;28;20042;-78
2022/06/12 03:00:17;;;;;;;7.35;3.05;;;;;;;12.11;74.47;102144.50;5034540;28;20131;-78
2022/06/12 03:03:04;;;;;;;7.57;3.38;;;;;;;12.07;74.55;102151.63;5037063;28;20036;-77
2022/06/12 03:05:39;;;;;;;7.97;3.20;;;;;;;12.01;74.87;102142.91;5038140;28;20108;-77
2022/06/12 03:08:16;;;;;;;9.85;3.42;;;;;;;11.95;74.70;102146.50;5030433;28;20046;-79
2022/06/12 03:11:01;;;;;;;7.18;3.53;;;;;;;11.90;74.37;102140.41;5034681;28;20034;-76
2022/06/12 03:13:31;;;;;;;10.15;4.00;;;;;;;11.81;74.25;102134.38;5034207;28;20136;-78
2022/06/12 03:16:10;;;;;;;9.95;3.92;;;;;;;11.77;74.76;102135.31;5032736;28;20038;-78
2022/06/12 03:18:50;;;;;;;8.55;3.70;;;;;;;11.74;74.85;102138.00;5034239;28;20075;-76
2022/06/12 03:21:34;;;;;;;8.57;3.88;;;;;;;11.72;74.75;102137.16;5031943;28;20049;-75
2022/06/12 03:24:27;;;;;;;;;;;;;;;11.70;74.66;102138.06;5038102;28;20038;-75
2022/06/12 03:27:30;;;;;;;11.68;3.80;;;;;;;11.68;74.70;102143.34;5034459;28;19929;-75
2022/06/12 03:30:18;;;;;;;10.55;4.13;;;;;;;11.70;75.01;102148.66;5036192;28;20038;-78
2022/06/12 03:33:10;;;;;;;11.05;3.97;;;;;;;11.71;74.99;102148.63;5036798;28;20034;-76
2022/06/12 03:36:11;;;;;;;11.40;3.90;;;;;;;11.77;75.46;102152.94;5034317;28;20522;-76
2022/06/12 03:38:52;;;;;;;11.57;3.80;;;;;;;11.83;75.32;102157.25;5034989;28;20040;-77
2022/06/12 03:42:07;;;;;;;11.98;3.75;;;;;;;11.99;75.12;102158.81;5035935;28;20141;-75
2022/06/12 03:44:53;;;;;;;11.10;3.63;;;;;;;12.56;73.98;102157.88;5038143;28;20116;-78
2022/06/12 03:47:41;;;;;;;11.27;3.70;;;;;;;12.80;73.73;102152.16;5036029;28;20599;-78
2022/06/12 03:50:29;;;;;;;10.93;3.42;;;;;;;12.81;73.73;102148.59;5031471;28;20052;-78
2022/06/12 03:53:18;;;;;;;10.13;3.40;;;;;;;12.96;73.08;102155.38;5035390;28;20042;-78
2022/06/12 03:58:55;;;;;;;9.55;3.42;;;;;;;13.49;71.89;102153.44;5035794;28;20551;-76
2022/06/12 04:01:23;;;;;;;10.87;3.40;;;;;;;13.46;71.94;102152.66;5031705;28;20052;-77
2022/06/12 04:03:53;;;;;;;11.85;3.30;;;;;;;13.45;72.05;102149.13;5037620;28;20753;-76
2022/06/12 04:06:27;;;;;;;11.32;3.78;;;;;;;13.53;71.80;102156.91;5034098;28;20456;-75
2022/06/12 04:09:05;;;;;;;10.73;3.78;;;;;;;13.54;71.85;102157.75;5033600;28;20046;-74
2022/06/12 04:11:38;;;;;;;9.23;3.45;;;;;;;13.51;72.05;102156.06;5036243;28;20044;-76
2022/06/12 04:14:13;;;;;;;11.13;3.40;;;;;;;13.48;72.33;102161.44;5036284;28;20100;-75
2022/06/12 04:16:49;;;;;;;7.63;3.28;;;;;;;13.45;72.12;102153.56;5028419;28;20034;-77
2022/06/12 04:19:23;;;;;;;7.88;3.53;;;;;;;13.49;71.96;102157.88;5034746;28;20492;-75
2022/06/12 04:22:04;;;;;;;12.15;3.35;;;;;;;13.55;71.94;102160.41;5032417;28;20046;-75
2022/06/12 04:24:46;;;;;;;10.52;3.60;;;;;;;13.59;71.49;102162.06;5032462;28;20045;-78
2022/06/12 04:27:27;;;;;;;8.82;3.53;;;;;;;13.64;71.72;102169.91;5038721;28;20042;-77
2022/06/12 04:30:01;;;;;;;8.70;3.35;;;;;;;13.69;71.33;102160.09;5037141;28;20501;-77
2022/06/12 04:32:30;;;;;;;10.20;3.70;;;;;;;13.76;71.45;102166.13;5037885;28;20042;-77
2022/06/12 04:34:58;;;;;;;10.65;3.60;;;;;;;13.84;71.37;102164.16;5042191;28;20140;-78
2022/06/12 04:37:30;;;;;;;11.98;3.83;;;;;;;13.92;71.18;102164.00;5038293;28;20088;-76
2022/06/12 04:40:02;;;;;;;12.88;3.72;;;;;;;14.00;70.93;102162.03;5040899;28;20124;-77
2022/06/12 04:42:31;;;;;;;10.57;3.42;;;;;;;14.08;70.67;102160.06;5041458;28;20097;-77
2022/06/12 04:45:00;;;;;;;10.82;3.40;;;;;;;14.20;70.46;102163.34;5040147;28;20034;-76
2022/06/12 04:47:31;;;;;;;10.65;3.08;;;;;;;14.31;70.02;102163.94;5036381;28;20038;-78
2022/06/12 04:50:00;;;;;;;12.25;3.17;;;;;;;14.40;69.85;102166.34;5044532;28;21887;-76
2022/06/12 04:52:31;;;;;;;13.57;3.40;;;;;;;14.50;69.48;102161.66;5041578;28;20038;-75
2022/06/12 04:54:59;;;;;;;9.10;3.67;;;;;;;14.59;69.10;102169.44;5041227;28;20092;-76
2022/06/12 04:57:27;;;;;;;11.35;3.45;;;;;;;14.68;68.90;102167.47;5044364;28;20038;-76
2022/06/12 04:59:54;;;;;;;8.32;3.15;;;;;;;14.78;68.76;102160.13;5047008;28;20046;-77
2022/06/12 05:02:23;;;;;;;12.13;3.30;;;;;;;14.89;68.43;102166.88;5043687;28;20536;-76
2022/06/12 05:04:52;;;;;;;9.20;3.55;;;;;;;15.04;68.27;102162.94;5048395;28;20050;-79
2022/06/12 05:07:19;;;;;;;11.45;3.25;;;;;;;15.17;67.71;102162.56;5045095;28;20041;-78
2022/06/12 05:09:47;;;;;;;9.50;3.65;;;;;;;15.35;67.63;102158.50;5047676;28;20037;-78
2022/06/12 05:12:15;;;;;;;16.67;3.67;;;;;;;15.60;67.24;102157.78;5039041;28;20046;-79
2022/06/12 05:14:44;;;;;;;9.73;3.60;;;;;;;16.40;65.81;102151.69;5046322;28;20106;-79
2022/06/12 05:17:22;;;;;;;9.32;2.97;;;;;;;17.96;62.37;102150.41;5045392;28;20085;-79
2022/06/12 05:19:50;;;;;;;9.15;3.08;;;;;;;18.63;59.09;102153.84;5046144;28;20135;-79
2022/06/12 05:22:22;;;;;;;14.52;3.60;;;;;;;19.58;57.25;102145.13;5048062;28;20926;-78
2022/06/12 05:24:49;;;;;;;10.43;3.05;;;;;;;21.63;51.57;102140.00;5058983;28;20077;-79
2022/06/12 05:27:22;;;;;;;11.65;3.33;;;;;;;23.24;47.28;102139.41;5044840;28;20129;-79
2022/06/12 05:29:52;;;;;;;10.00;3.13;;;;;;;24.53;44.27;102140.84;5056745;28;20034;-80
2022/06/12 05:32:24;;;;;;;11.27;3.08;;;;;;;25.52;40.60;102137.44;5043913;28;20047;-81
2022/06/12 05:34:52;;;;;;;12.95;3.30;;;;;;;26.25;39.30;102141.97;5052377;28;20042;-79
2022/06/12 05:37:21;;;;;;;9.63;2.75;;;;;;;26.91;36.44;102141.38;5037579;28;20053;-78
2022/06/12 05:39:49;;;;;;;6.95;2.50;;;;;;;27.32;35.65;102136.31;5045962;28;20069;-78
2022/06/12 05:42:18;;;;;;;9.30;2.95;;;;;;;27.87;35.82;102139.03;5043926;28;20403;-79
2022/06/12 05:44:46;;;;;;;11.48;3.03;;;;;;;28.52;35.18;102138.94;5056084;28;20043;-79
2022/06/12 05:47:19;;;;;;;12.65;2.88;;;;;;;29.16;34.18;102138.84;5041839;28;20133;-78
2022/06/12 05:49:46;;;;;;;12.07;3.10;;;;;;;29.75;33.05;102139.84;5040585;28;20127;-76
2022/06/12 05:52:14;;;;;;;6.97;2.47;;;;;;;30.24;31.78;102145.31;5036225;28;20042;-74
2022/06/12 05:54:42;;;;;;;9.43;3.00;;;;;;;30.82;31.09;102140.75;5052831;28;20037;-75
2022/06/12 05:57:09;;;;;;;9.10;2.83;;;;;;;31.22;29.88;102147.75;5044481;28;20050;-73
2022/06/12 05:59:38;;;;;;;10.70;2.80;;;;;;;31.57;29.85;102147.97;5049776;28;20506;-75
2022/06/12 06:02:06;;;;;;;8.77;2.75;;;;;;;31.89;29.34;102152.94;5046929;28;20045;-75
2022/06/12 06:04:34;;;;;;;8.50;2.55;;;;;;;32.21;28.74;102156.09;5040685;28;20546;-75
2022/06/12 06:07:02;;;;;;;10.35;2.80;;;;;;;32.49;27.40;102151.38;5042866;28;20038;-74
2022/06/12 06:09:30;;;;;;;8.88;3.00;;;;;;;32.43;27.89;102165.66;5054388;28;20042;-74
2022/06/12 06:11:57;;;;;;;8.85;2.83;;;;;;;32.39;27.25;102153.38;5043273;28;20933;-75
2022/06/12 06:14:24;;;;;;;11.00;2.88;;;;;;;31.99;27.83;102154.72;5036201;28;20112;-74
2022/06/12 06:16:51;;;;;;;10.60;3.50;;;;;;;31.55;28.46;102152.72;5049588;28;20042;-74
2022/06/12 06:19:19;;;;;;;13.40;3.10;;;;;;;30.57;29.26;102158.59;5041214;28;20045;-74
2022/06/12 06:21:46;;;;;;;13.35;3.47;;;;;;;28.07;32.70;102150.03;5032925;28;20520;-74
2022/06/12 06:24:14;;;;;;;11.20;3.50;;;;;;;25.61;36.67;102157.47;5042625;28;20084;-76
2022/06/12 06:26:43;;;;;;;12.90;3.63;;;;;;;23.76;40.88;102166.56;5042657;28;20041;-73
2022/06/12 06:29:10;;;;;;;15.18;4.13;;;;;;;22.47;44.16;102168.28;5051398;28;20064;-74
2022/06/12 06:31:38;;;;;;;12.60;3.90;;;;;;;21.55;47.08;102170.78;5049414;28;20045;-74
2022/06/12 06:34:07;;;;;;;14.68;4.38;;;;;;;20.81;49.76;102174.78;5047875;28;20081;-75
2022/06/12 06:36:34;;;;;;;10.75;4.28;;;;;;;20.27;50.92;102174.84;5038934;28;20042;-74
2022/06/12 06:39:02;;;;;;;13.43;4.75;;;;;;;19.86;52.10;102170.59;5032631;28;20062;-75
2022/06/12 06:41:30;;;;;;;14.07;4.57;;;;;;;19.61;52.79;102171.75;5032543;28;20132;-75
2022/06/12 06:46:44;;;;;;;12.18;4.38;;;;;;;19.26;56.05;102181.41;5037811;28;20069;-76
2022/06/12 06:49:19;;;;;;;14.80;5.05;;;;;;;19.01;56.62;102191.41;5039166;28;20042;-76
2022/06/12 06:51:47;;;;;;;13.18;5.20;;;;;;;18.92;57.90;102194.47;5044451;28;20130;-76
2022/06/12 06:54:14;;;;;;;16.13;5.60;;;;;;;18.86;58.11;102190.25;5035607;28;20037;-74
2022/06/12 06:56:44;;;;;;;19.50;5.57;;;;;;;18.79;58.43;102188.78;5040959;28;20041;-77
2022/06/12 06:59:12;;;;;;;16.15;5.10;;;;;;;18.74;58.77;102198.81;5031517;28;20040;-77
2022/06/12 07:01:39;;;;;;;20.05;6.30;;;;;;;18.75;59.90;102197.88;5030651;28;20042;-77
2022/06/12 07:04:06;;;;;;;15.98;5.47;;;;;;;18.73;59.47;102189.06;5030161;28;20045;-77
2022/06/12 07:06:34;;;;;;;16.15;5.50;;;;;;;18.74;60.88;102190.78;5044366;28;20045;-76
2022/06/12 07:09:03;;;;;;;16.30;5.07;;;;;;;18.74;60.62;102190.78;5034270;28;20104;-76
2022/06/12 07:11:32;;;;;;;14.10;4.85;;;;;;;18.78;60.63;102184.38;5039082;28;20157;-77
2022/06/12 07:14:00;;;;;;;17.40;5.80;;;;;;;18.78;60.76;102184.38;5042895;28;20053;-73
2022/06/12 07:16:31;;;;;;;14.15;4.93;;;;;;;18.86;60.77;102192.94;5031702;28;20117;-75
2022/06/12 07:18:59;;;;;;;17.13;5.35;;;;;;;18.94;60.20;102189.94;5036395;28;20050;-72
2022/06/12 07:21:27;;;;;;;19.38;5.18;;;;;;;19.01;59.84;102191.41;5035788;28;20050;-71
2022/06/12 07:23:54;;;;;;;16.25;5.05;;;;;;;19.05;59.17;102193.00;5029399;28;20049;-73
2022/06/12 07:26:28;;;;;;;15.43;5.75;;;;;;;19.06;59.05;102191.22;5050696;28;20033;-73
2022/06/12 07:28:56;;;;;;;20.77;5.47;;;;;;;19.15;59.00;102192.59;5055236;28;20045;-73
2022/06/12 07:31:24;;;;;;;19.98;5.60;;;;;;;19.19;59.28;102192.38;5056851;28;20046;-75
2022/06/12 07:33:54;;;;;;;16.08;5.07;;;;;;;19.23;58.86;102193.97;5063892;28;20102;-76
2022/06/12 07:36:24;;;;;;;16.50;5.45;;;;;;;19.32;58.83;102190.03;5038248;28;20536;-76
2022/06/12 07:38:52;;;;;;;15.57;5.55;;;;;;;19.44;58.89;102185.91;5038738;28;20845;-77
2022/06/12 07:41:42;;;;;;;19.38;5.65;;;;;;;19.61;58.48;102192.25;5033798;28;20899;-76
2022/06/12 07:44:12;;;;;;;15.68;4.90;;;;;;;19.76;58.04;102188.88;5038181;28;20034;-77
2022/06/12 07:46:40;;;;;;;19.55;4.97;;;;;;;19.71;57.46;102189.09;5042386;28;20041;-78
2022/06/12 07:49:08;;;;;;;14.93;4.95;;;;;;;19.77;56.45;102189.72;5027273;28;20531;-78
2022/06/12 07:51:35;;;;;;;15.80;4.50;;;;;;;19.75;57.22;102183.56;5043972;28;20050;-79
2022/06/12 07:54:03;;;;;;;18.98;5.15;;;;;;;19.82;57.42;102185.03;5035502;28;20052;-76
2022/06/12 07:56:30;;;;;;;16.77;5.40;;;;;;;19.91;57.87;102195.34;5039599;28;20119;-77
2022/06/12 07:59:01;;;;;;;18.13;4.97;;;;;;;20.06;57.44;102188.34;5030670;28;20042;-79
2022/06/12 08:01:30;;;;;;;12.48;4.93;;;;;;;20.23;57.08;102197.34;5041286;28;20073;-77
2022/06/12 08:03:58;;;;;;;17.55;5.10;;;;;;;20.34;55.94;102184.28;5032978;28;20045;-76
2022/06/12 08:06:27;;;;;;;18.55;5.03;;;;;;;20.44;55.78;102188.25;5042253;28;20045;-77
2022/06/12 08:08:57;;;;;;;16.85;4.78;;;;;;;20.55;55.66;102190.34;5039211;28;20048;-77
2022/06/12 08:11:29;;;;;;;19.08;4.93;;;;;;;20.63;55.43;102187.28;5037754;28;20045;-77
2022/06/12 08:13:56;;;;;;;15.20;4.93;;;;;;;20.75;55.49;102183.16;5034268;28;20058;-79
2022/06/12 08:16:24;;;;;;;16.02;4.07;;;;;;;20.82;54.83;102179.19;5044959;28;20092;-77
2022/06/12 08:18:51;;;;;;;11.23;4.30;;;;;;;21.00;54.00;102181.84;5039785;28;20041;-76
2022/06/12 08:21:19;;;;;;;12.32;3.88;;;;;;;21.06;53.83;102177.03;5039231;28;20054;-77
2022/06/12 08:23:54;;;;;;;15.88;4.03;;;;;;;21.21;52.62;102180.69;5042170;28;20125;-78
2022/06/12 08:26:30;;;;;;;13.85;3.30;;;;;;;21.26;51.35;102177.75;5048704;28;20045;-77
2022/06/12 08:29:04;;;;;;;12.68;3.15;;;;;;;21.29;51.65;102180.28;5046608;28;20117;-76
2022/06/12 08:31:44;;;;;;;10.85;3.03;;;;;;;21.32;51.87;102180.09;5047482;28;20044;-77
2022/06/12 08:34:23;;;;;;;20.77;3.55;;;;;;;21.36;51.48;102186.19;5050550;28;20052;-75
2022/06/12 08:36:54;;;;;;;17.42;3.70;;;;;;;21.41;50.73;102176.94;5042582;28;20046;-76
2022/06/12 08:39:23;;;;;;;11.77;3.20;;;;;;;21.36;50.62;102176.31;5036280;28;20068;-76
2022/06/12 08:42:09;;;;;;;14.20;3.40;;;;;;;21.32;51.01;102176.56;5033729;28;20844;-76
2022/06/12 08:44:58;;;;;;;12.02;3.75;;;;;;;21.34;50.56;102182.72;5039873;28;20048;-77
2022/06/12 08:47:48;;;;;;;17.48;3.22;;;;;;;21.31;51.04;102182.88;5045961;28;20073;-76
2022/06/12 08:50:30;;;;;;;10.93;4.20;;;;;;;21.29;52.11;102179.41;5040182;28;20064;-76
2022/06/12 08:53:17;;;;;;;15.13;3.67;;;;;;;21.47;51.63;102180.22;5035059;28;20034;-77
2022/06/12 08:56:02;;;;;;;13.70;3.38;;;;;;;21.67;51.72;102181.84;5039503;28;20083;-77
2022/06/12 08:58:51;;;;;;;11.00;2.60;;;;;;;21.74;48.08;102176.94;5045355;28;20044;-76
2022/06/12 09:01:19;;;;;;;11.48;3.47;;;;;;;21.76;48.97;102172.38;5034312;28;20049;-77
2022/06/12 09:03:52;;;;;;;12.80;3.20;;;;;;;21.71;49.00;102170.84;5043593;28;20048;-76
2022/06/12 09:06:49;;;;;;;14.57;3.67;;;;;;;21.70;49.14;102169.09;5043662;28;20034;-78
2022/06/12 09:09:24;;;;;;;12.77;4.13;;;;;;;21.65;49.41;102160.44;5040275;28;20459;-76
2022/06/12 09:12:34;;;;;;;13.18;3.58;;;;;;;21.64;49.17;102164.06;5049609;28;20038;-77
2022/06/12 09:15:24;;;;;;;15.27;3.63;;;;;;;21.63;50.50;102162.31;5046810;28;20057;-76
2022/06/12 09:18:29;;;;;;;11.85;3.50;;;;;;;21.72;50.58;102160.94;5045358;28;20038;-78
2022/06/12 09:21:28;;;;;;;16.40;3.58;;;;;;;21.96;49.86;102157.81;5034095;28;20080;-75
2022/06/12 09:24:05;;;;;;;8.40;3.00;;;;;;;21.98;48.98;102153.22;5042627;28;20067;-77
2022/06/12 09:27:05;;;;;;;13.95;3.40;;;;;;;22.00;49.50;102162.03;5034960;28;20042;-77
2022/06/12 09:29:52;;;;;;;13.52;3.47;;;;;;;22.08;48.70;102159.78;5041503;28;20573;-77
2022/06/12 09:32:35;;;;;;;9.57;3.00;;;;;;;22.11;48.78;102145.31;5042229;28;20041;-77
2022/06/12 09:35:59;;;;;;;7.95;2.70;;;;;;;22.19;46.90;102148.41;5048597;28;20096;-77
2022/06/12 09:38:47;;;;;;;8.55;3.08;;;;;;;22.31;47.51;102147.69;5034739;28;20062;-78
2022/06/12 09:41:37;;;;;;;6.47;2.60;;;;;;;22.43;47.93;102137.22;5034054;28;20081;-75
2022/06/12 09:44:52;;;;;;;7.70;2.13;;;;;;;22.64;47.39;102149.31;5053072;28;20597;-78
2022/06/12 09:47:51;;;;;;;10.23;2.20;;;;;;;22.72;43.72;102140.78;5035004;28;20440;-76
2022/06/12 09:50:58;;;;;;;6.55;2.25;;;;;;;22.79;44.11;102141.28;5043994;28;20044;-78
2022/06/12 09:53:49;;;;;;;11.10;3.17;;;;;;;22.90;44.47;102154.91;5040415;28;20546;-77
2022/06/12 09:56:33;;;;;;;5.72;2.05;;;;;;;22.96;44.21;102143.78;5034631;28;20038;-78
2022/06/12 09:59:46;;;;;;;15.45;2.90;;;;;;;23.11;44.53;102138.41;5036324;28;20038;-78
2022/06/12 10:02:27;;;;;;;10.15;2.95;;;;;;;23.32;45.08;102138.88;5054160;28;20510;-77
2022/06/12 10:05:09;;;;;;;7.78;2.20;;;;;;;23.47;44.12;102139.72;5055164;28;20416;-76
2022/06/12 10:08:06;;;;;;;10.18;3.03;;;;;;;23.64;42.45;102145.84;5052541;28;20099;-77
2022/06/12 10:11:04;;;;;;;7.45;2.50;;;;;;;23.69;42.25;102139.19;5043817;28;20034;-78
2022/06/12 10:13:45;;;;;;;9.80;2.72;;;;;;;23.55;43.54;102139.22;5035579;28;20482;-77
2022/06/12 10:16:39;;;;;;;8.77;2.97;;;;;;;23.76;43.68;102141.47;5033842;28;20052;-78
2022/06/12 10:19:50;;;;;;;10.70;2.92;;;;;;;23.88;42.76;102138.81;5036523;28;20042;-77
2022/06/12 10:22:37;;;;;;;7.20;2.05;;;;;;;23.94;40.23;102144.78;5042449;28;20059;-77
2022/06/12 10:25:08;;;;;;;7.63;1.98;;;;;;;23.91;40.56;102136.91;5054776;28;20085;-77
2022/06/12 10:27:46;;;;;;;8.70;2.22;;;;;;;23.98;40.73;102135.53;5053419;28;20036;-77
2022/06/12 10:30:46;;;;;;;6.10;1.98;;;;;;;24.12;40.46;102131.91;5052168;28;20110;-76
2022/06/12 10:33:30;;;;;;;8.15;1.98;;;;;;;24.09;40.64;102137.53;5046021;28;20641;-77
2022/06/12 10:36:05;;;;;;;24.17;2.60;;;;;;;24.04;40.64;102135.16;5039621;28;20092;-76
2022/06/12 10:38:36;;;;;;;6.82;1.77;;;;;;;24.01;39.80;102124.56;5034571;28;20045;-77
2022/06/12 10:41:21;;;;;;;7.90;2.05;;;;;;;24.10;40.85;102128.50;5038317;28;20045;-77
2022/06/12 10:43:52;;;;;;;7.22;1.77;;;;;;;24.34;38.83;102120.56;5054236;28;20096;-76
2022/06/12 10:46:31;;;;;;;7.65;2.10;;;;;;;24.41;38.77;102116.47;5038500;28;20121;-76
2022/06/12 10:49:22;;;;;;;6.72;1.83;;;;;;;24.52;38.84;102114.84;5051225;28;20084;-77
2022/06/12 10:51:51;;;;;;;8.23;2.08;;;;;;;24.50;38.40;102109.59;5032508;28;20042;-76
2022/06/12 10:54:28;;;;;;;13.45;2.80;;;;;;;24.45;38.87;102118.00;5042129;28;20064;-76
2022/06/12 10:57:14;;;;;;;11.32;2.63;;;;;;;24.46;40.12;102117.03;5050981;28;20053;-77
2022/06/12 11:00:14;;;;;;;5.50;1.85;;;;;;;24.56;39.60;102119.91;5049775;28;20034;-77
2022/06/12 11:02:55;;;;;;;6.10;1.85;;;;;;;24.42;39.25;102112.81;5031936;28;20050;-77
2022/06/12 11:05:49;;;;;;;8.75;2.10;;;;;;;24.35;39.74;102117.75;5050011;28;20974;-76
2022/06/12 11:08:58;;;;;;;6.38;1.83;;;;;;;24.37;39.29;102116.78;5047045;28;20037;-76
2022/06/12 11:12:03;;;;;;;10.15;2.30;;;;;;;24.28;39.72;102112.88;5032224;28;20042;-77
2022/06/12 11:14:30;;;;;;;7.20;1.75;;;;;;;24.24;40.16;102116.78;5039575;28;20057;-77
2022/06/12 11:17:06;;;;;;;6.72;2.10;;;;;;;24.21;38.72;102114.28;5051127;28;20041;-76
2022/06/12 11:20:23;;;;;;;10.38;2.10;;;;;;;24.06;38.77;102108.97;5049943;28;20057;-77
2022/06/12 11:23:10;;;;;;;6.70;1.70;;;;;;;24.10;39.66;102107.78;5052163;28;20575;-76
2022/06/12 11:26:43;;;;;;;12.05;1.80;;;;;;;24.21;39.17;102107.06;5035380;28;20048;-76
2022/06/12 11:29:48;;;;;;;6.30;1.90;;;;;;;24.07;38.52;102109.84;5040182;28;20042;-77
2022/06/12 11:32:15;;;;;;;;;;;;;;;24.12;39.33;102102.28;5047972;28;20045;-76
2022/06/12 11:35:21;;;;;;;9.30;1.98;;;;;;;24.24;38.70;102104.16;5051471;28;19936;-77
2022/06/12 11:38:22;;;;;;;8.95;2.30;;;;;;;24.25;39.45;102102.34;5041573;28;20484;-77
2022/06/12 11:41:11;;;;;;;7.68;2.25;;;;;;;24.36;39.94;102097.06;5054600;28;20038;-76
2022/06/12 11:43:54;;;;;;;10.00;2.50;;;;;;;24.52;40.14;102096.00;5035590;28;20049;-77
2022/06/12 11:46:53;;;;;;;;;;;;;;;24.32;41.07;102099.09;5050812;28;20047;-76
2022/06/12 11:49:40;;;;;;;7.53;1.98;;;;;;;24.35;38.61;102095.34;5035459;28;19933;-78
2022/06/12 11:52:36;;;;;;;7.40;2.10;;;;;;;24.44;38.82;102091.13;5035443;28;20053;-76
2022/06/12 11:55:28;;;;;;;11.57;2.17;;;;;;;24.30;39.24;102095.66;5044186;28;20048;-77
2022/06/12 11:58:13;;;;;;;12.38;2.40;;;;;;;24.30;39.63;102092.09;5040684;28;20124;-77
2022/06/12 12:01:09;;;;;;;8.60;2.13;;;;;;;24.38;39.05;102086.19;5035252;28;20138;-77
2022/06/12 12:04:17;;;;;;;7.70;2.20;;;;;;;24.36;39.58;102091.69;5035420;28;20179;-77
2022/06/12 12:07:30;;;;;;;10.82;1.95;;;;;;;24.06;38.46;102092.81;5035679;28;20038;-76
2022/06/12 12:10:19;;;;;;;11.60;2.25;;;;;;;23.78;40.40;102077.63;5046958;28;20048;-76
2022/06/12 12:12:56;;;;;;;8.82;1.98;;;;;;;23.87;40.06;102074.31;5036054;28;20120;-76
2022/06/12 12:15:33;;;;;;;10.45;2.13;;;;;;;23.95;40.50;102082.75;5047811;28;20436;-77
2022/06/12 12:18:05;;;;;;;9.40;1.75;;;;;;;23.86;39.90;102077.97;5054677;28;20064;-78
2022/06/12 12:20:43;;;;;;;8.63;2.03;;;;;;;23.76;40.41;102076.88;5055310;28;20037;-77
2022/06/12 12:23:43;;;;;;;7.20;1.80;;;;;;;23.66;40.84;102073.91;5050793;28;20527;-76
2022/06/12 12:26:31;;;;;;;10.48;1.92;;;;;;;23.92;40.54;102068.63;5054504;28;20041;-76
2022/06/12 12:29:09;;;;;;;9.32;2.22;;;;;;;24.01;39.62;102079.66;5052194;28;20049;-78